createdAt,value
2022-11-12T00:00:45.000Z,0
2022-11-12T00:02:01.000Z,0
2022-11-12T00:03:17.000Z,0
2022-11-12T00:04:33.000Z,0
2022-11-12T00:05:50.000Z,0
2022-11-12T00:07:05.000Z,0
2022-11-12T00:08:20.000Z,0
2022-11-12T00:09:35.000Z,0
2022-11-12T00:10:50.000Z,0
2022-11-12T00:12:07.000Z,0
2022-11-12T00:13:23.000Z,0
2022-11-12T00:14:39.000Z,0
2022-11-12T00:15:55.000Z,0
2022-11-12T00:17:11.000Z,0
2022-11-12T00:18:28.000Z,0
2022-11-12T00:19:44.000Z,0
2022-11-12T00:21:00.000Z,0
2022-11-12T00:22:16.000Z,0
2022-11-12T00:23:32.000Z,0
2022-11-12T00:24:49.000Z,0
2022-11-12T00:26:05.000Z,0
2022-11-12T00:27:20.000Z,0
2022-11-12T00:28:36.000Z,0
2022-11-12T00:29:52.000Z,0
2022-11-12T00:31:09.000Z,0
2022-11-12T00:32:25.000Z,0
2022-11-12T00:33:41.000Z,0
2022-11-12T00:34:57.000Z,0
2022-11-12T00:36:12.000Z,0
2022-11-12T00:37:28.000Z,0
2022-11-12T00:38:43.000Z,0
2022-11-12T00:39:58.000Z,0
2022-11-12T00:41:14.000Z,0
2022-11-12T00:42:30.000Z,0
2022-11-12T00:43:47.000Z,0
2022-11-12T00:45:03.000Z,0
2022-11-12T00:46:19.000Z,0
2022-11-12T00:47:35.000Z,0
2022-11-12T00:48:51.000Z,0
2022-11-12T00:50:08.000Z,0
2022-11-12T00:51:24.000Z,0
2022-11-12T00:52:40.000Z,0
2022-11-12T00:53:56.000Z,0
2022-11-12T00:55:12.000Z,0
2022-11-12T00:56:28.000Z,0
2022-11-12T00:57:44.000Z,0
2022-11-12T00:59:00.000Z,0
2022-11-12T01:00:16.000Z,0
2022-11-12T01:01:32.000Z,0
2022-11-12T01:02:49.000Z,0
2022-11-12T01:04:05.000Z,0
2022-11-12T01:05:20.000Z,0
2022-11-12T01:06:35.000Z,0
2022-11-12T01:07:50.000Z,0
2022-11-12T01:09:06.000Z,0
2022-11-12T01:10:22.000Z,0
2022-11-12T01:11:38.000Z,0
2022-11-12T01:12:54.000Z,0
2022-11-12T01:14:10.000Z,0
2022-11-12T01:15:27.000Z,0
2022-11-12T01:16:43.000Z,0
2022-11-12T01:17:59.000Z,0
2022-11-12T01:19:15.000Z,0
2022-11-12T01:20:31.000Z,0
2022-11-12T01:21:48.000Z,0
2022-11-12T01:23:04.000Z,0
2022-11-12T01:24:20.000Z,0
2022-11-12T01:25:35.000Z,0
2022-11-12T01:26:51.000Z,0
2022-11-12T01:28:08.000Z,0
2022-11-12T01:29:24.000Z,0
2022-11-12T01:30:40.000Z,0
2022-11-12T01:31:56.000Z,0
2022-11-12T01:33:12.000Z,0
2022-11-12T01:34:28.000Z,0
2022-11-12T01:35:43.000Z,0
2022-11-12T01:36:59.000Z,0
2022-11-12T01:38:15.000Z,0
2022-11-12T01:39:31.000Z,0
2022-11-12T01:40:48.000Z,0
2022-11-12T01:42:04.000Z,0
2022-11-12T01:43:20.000Z,0
2022-11-12T01:44:36.000Z,0
2022-11-12T01:45:52.000Z,0
2022-11-12T01:47:09.000Z,0
2022-11-12T01:48:25.000Z,0
2022-11-12T01:49:41.000Z,0
2022-11-12T01:50:57.000Z,0
2022-11-12T01:52:12.000Z,0
2022-11-12T01:53:29.000Z,0
2022-11-12T01:54:45.000Z,0
2022-11-12T01:56:01.000Z,0
2022-11-12T01:57:17.000Z,0
2022-11-12T01:58:33.000Z,0
2022-11-12T01:59:49.000Z,0
2022-11-12T02:01:05.000Z,0
2022-11-12T02:02:20.000Z,0
2022-11-12T02:03:35.000Z,0
2022-11-12T02:04:50.000Z,0
2022-11-12T02:06:06.000Z,0
2022-11-12T02:08:37.000Z,0
2022-11-12T02:09:53.000Z,0
2022-11-12T02:11:09.000Z,0
2022-11-12T02:12:26.000Z,0
2022-11-12T02:13:42.000Z,0
2022-11-12T02:14:58.000Z,0
2022-11-12T02:16:14.000Z,0
2022-11-12T02:17:30.000Z,0
2022-11-12T02:18:47.000Z,0
2022-11-12T02:21:19.000Z,0
2022-11-12T02:22:35.000Z,0
2022-11-12T02:23:50.000Z,0
2022-11-12T02:25:07.000Z,0
2022-11-12T02:26:23.000Z,0
2022-11-12T02:27:39.000Z,0
2022-11-12T02:28:55.000Z,0
2022-11-12T02:30:11.000Z,0
2022-11-12T02:31:28.000Z,0
2022-11-12T02:34:00.000Z,0
2022-11-12T02:35:16.000Z,0
2022-11-12T02:36:31.000Z,0
2022-11-12T02:37:47.000Z,0
2022-11-12T02:39:02.000Z,0
2022-11-12T02:40:17.000Z,0
2022-11-12T02:41:33.000Z,0
2022-11-12T02:42:49.000Z,0
2022-11-12T02:44:06.000Z,0
2022-11-12T02:45:22.000Z,0
2022-11-12T02:46:38.000Z,0
2022-11-12T02:47:54.000Z,0
2022-11-12T02:49:10.000Z,0
2022-11-12T02:50:27.000Z,0
2022-11-12T02:51:43.000Z,0
2022-11-12T02:52:59.000Z,0
2022-11-12T02:54:15.000Z,0
2022-11-12T02:55:31.000Z,0
2022-11-12T02:56:48.000Z,0
2022-11-12T02:58:03.000Z,0
2022-11-12T02:59:19.000Z,0
2022-11-12T03:00:35.000Z,0
2022-11-12T03:01:51.000Z,0
2022-11-12T03:03:08.000Z,0
2022-11-12T03:04:24.000Z,0
2022-11-12T03:05:39.000Z,0
2022-11-12T03:06:54.000Z,0
2022-11-12T03:08:09.000Z,0
2022-11-12T03:09:25.000Z,0
2022-11-12T03:11:57.000Z,0
2022-11-12T03:13:13.000Z,0
2022-11-12T03:14:29.000Z,0
2022-11-12T03:15:46.000Z,0
2022-11-12T03:17:02.000Z,0
2022-11-12T03:18:18.000Z,0
2022-11-12T03:19:34.000Z,0
2022-11-12T03:20:50.000Z,0
2022-11-12T03:22:07.000Z,0
2022-11-12T03:23:23.000Z,0
2022-11-12T03:24:39.000Z,0
2022-11-12T03:25:54.000Z,0
2022-11-12T03:27:10.000Z,0
2022-11-12T03:28:27.000Z,0
2022-11-12T03:29:43.000Z,0
2022-11-12T03:30:59.000Z,0
2022-11-12T03:32:15.000Z,0
2022-11-12T03:33:31.000Z,0
2022-11-12T03:34:48.000Z,0
2022-11-12T03:36:03.000Z,0
2022-11-12T03:37:18.000Z,0
2022-11-12T03:38:34.000Z,0
2022-11-12T03:39:50.000Z,0
2022-11-12T03:41:07.000Z,0
2022-11-12T03:42:23.000Z,0
2022-11-12T03:43:39.000Z,0
2022-11-12T03:44:55.000Z,0
2022-11-12T03:46:11.000Z,0
2022-11-12T03:47:28.000Z,0
2022-11-12T03:50:00.000Z,0
2022-11-12T03:51:16.000Z,0
2022-11-12T03:52:31.000Z,0
2022-11-12T03:53:48.000Z,0
2022-11-12T03:55:04.000Z,0
2022-11-12T03:56:20.000Z,0
2022-11-12T03:57:36.000Z,0
2022-11-12T03:58:52.000Z,0
2022-11-12T04:00:08.000Z,0
2022-11-12T04:01:25.000Z,0
2022-11-12T04:02:41.000Z,0
2022-11-12T04:03:56.000Z,0
2022-11-12T04:05:11.000Z,0
2022-11-12T04:06:28.000Z,0
2022-11-12T04:07:43.000Z,0
2022-11-12T04:08:58.000Z,0
2022-11-12T04:10:13.000Z,0
2022-11-12T04:11:28.000Z,0
2022-11-12T04:12:45.000Z,0
2022-11-12T04:15:17.000Z,0
2022-11-12T04:16:33.000Z,0
2022-11-12T04:17:49.000Z,0
2022-11-12T04:19:06.000Z,0
2022-11-12T04:20:22.000Z,0
2022-11-12T04:21:38.000Z,0
2022-11-12T04:22:54.000Z,0
2022-11-12T04:24:10.000Z,0
2022-11-12T04:25:27.000Z,0
2022-11-12T04:26:43.000Z,0
2022-11-12T04:27:58.000Z,0
2022-11-12T04:29:14.000Z,0
2022-11-12T04:30:30.000Z,0
2022-11-12T04:31:47.000Z,0
2022-11-12T04:33:03.000Z,0
2022-11-12T04:34:19.000Z,0
2022-11-12T04:35:35.000Z,0
2022-11-12T04:36:51.000Z,0
2022-11-12T04:38:07.000Z,0
2022-11-12T04:39:22.000Z,0
2022-11-12T04:40:38.000Z,0
2022-11-12T04:41:54.000Z,0
2022-11-12T04:43:09.000Z,0
2022-11-12T04:44:25.000Z,0
2022-11-12T04:45:41.000Z,0
2022-11-12T04:46:57.000Z,0
2022-11-12T04:48:13.000Z,0
2022-11-12T04:49:29.000Z,0
2022-11-12T04:50:46.000Z,0
2022-11-12T04:53:18.000Z,0
2022-11-12T04:55:50.000Z,0
2022-11-12T04:57:07.000Z,0
2022-11-12T04:58:23.000Z,0
2022-11-12T04:59:38.000Z,0
2022-11-12T05:00:53.000Z,0
2022-11-12T05:02:09.000Z,0
2022-11-12T05:03:26.000Z,0
2022-11-12T05:04:42.000Z,0
2022-11-12T05:05:58.000Z,0
2022-11-12T05:07:14.000Z,0
2022-11-12T05:08:30.000Z,0
2022-11-12T05:09:47.000Z,0
2022-11-12T05:11:03.000Z,0
2022-11-12T05:12:19.000Z,0
2022-11-12T05:13:34.000Z,0
2022-11-12T05:14:49.000Z,0
2022-11-12T05:16:06.046Z,0
2022-11-12T05:18:38.000Z,0
2022-11-12T05:19:54.000Z,0
2022-11-12T05:21:10.000Z,0
2022-11-12T05:22:27.000Z,0
2022-11-12T05:23:43.000Z,0
2022-11-12T05:24:59.000Z,0
2022-11-12T05:26:15.000Z,0
2022-11-12T05:27:31.000Z,0
2022-11-12T05:28:48.000Z,0
2022-11-12T05:30:04.000Z,0
2022-11-12T05:31:19.000Z,0
2022-11-12T05:32:35.000Z,0
2022-11-12T05:33:51.000Z,0
2022-11-12T05:35:07.000Z,0
2022-11-12T05:36:24.000Z,0
2022-11-12T05:37:40.000Z,0
2022-11-12T05:38:56.000Z,0
2022-11-12T05:40:12.000Z,0
2022-11-12T05:41:28.000Z,0
2022-11-12T05:42:43.000Z,0
2022-11-12T05:43:59.000Z,0
2022-11-12T05:45:15.000Z,0
2022-11-12T05:46:30.000Z,0
2022-11-12T05:47:47.000Z,0
2022-11-12T05:49:02.000Z,0
2022-11-12T05:50:18.000Z,0
2022-11-12T05:51:34.000Z,0
2022-11-12T05:52:50.000Z,0
2022-11-12T05:54:07.000Z,0
2022-11-12T05:56:39.000Z,0
2022-11-12T05:57:55.000Z,0
2022-11-12T05:59:11.000Z,0
2022-11-12T06:00:27.000Z,0
2022-11-12T06:01:44.000Z,0
2022-11-12T06:03:00.000Z,0
2022-11-12T06:04:16.000Z,0
2022-11-12T06:05:31.000Z,0
2022-11-12T06:06:47.000Z,0
2022-11-12T06:08:04.000Z,0
2022-11-12T06:09:20.000Z,0
2022-11-12T06:10:36.000Z,0
2022-11-12T06:11:52.000Z,0
2022-11-12T06:13:08.000Z,0
2022-11-12T06:14:24.000Z,0
2022-11-12T06:15:39.000Z,0
2022-11-12T06:16:54.000Z,0
2022-11-12T06:18:09.000Z,0
2022-11-12T06:19:26.000Z,0
2022-11-12T06:20:42.000Z,0
2022-11-12T06:21:58.000Z,0
2022-11-12T06:23:14.000Z,0
2022-11-12T06:24:30.000Z,0
2022-11-12T06:25:47.000Z,0
2022-11-12T06:27:03.000Z,0
2022-11-12T06:28:19.000Z,0
2022-11-12T06:29:35.000Z,0
2022-11-12T06:30:51.000Z,5
2022-11-12T06:32:07.000Z,5
2022-11-12T06:34:40.000Z,5
2022-11-12T06:35:55.000Z,5
2022-11-12T06:37:11.000Z,5
2022-11-12T06:38:27.000Z,11
2022-11-12T06:39:44.000Z,11
2022-11-12T06:41:00.000Z,11
2022-11-12T06:42:16.000Z,11
2022-11-12T06:43:32.000Z,16
2022-11-12T06:44:47.000Z,16
2022-11-12T06:46:03.000Z,16
2022-11-12T06:47:19.000Z,22
2022-11-12T06:48:34.000Z,22
2022-11-12T06:49:49.000Z,28
2022-11-12T06:51:06.000Z,28
2022-11-12T06:52:22.000Z,33
2022-11-12T06:53:38.000Z,33
2022-11-12T06:54:54.000Z,39
2022-11-12T06:56:10.000Z,39
2022-11-12T06:57:27.000Z,45
2022-11-12T06:59:59.000Z,50
2022-11-12T07:01:15.000Z,50
2022-11-12T07:02:31.000Z,56
2022-11-12T07:03:47.000Z,56
2022-11-12T07:05:04.000Z,61
2022-11-12T07:06:19.000Z,61
2022-11-12T07:07:35.000Z,61
2022-11-12T07:08:51.000Z,67
2022-11-12T07:10:07.000Z,67
2022-11-12T07:11:24.000Z,67
2022-11-12T07:12:40.000Z,73
2022-11-12T07:13:56.000Z,73
2022-11-12T07:15:12.000Z,78
2022-11-12T07:16:27.000Z,78
2022-11-12T07:17:43.000Z,78
2022-11-12T07:20:14.000Z,84
2022-11-12T07:21:29.000Z,84
2022-11-12T07:22:45.000Z,90
2022-11-12T07:24:01.000Z,90
2022-11-12T07:25:17.000Z,90
2022-11-12T07:26:33.000Z,90
2022-11-12T07:27:49.000Z,90
2022-11-12T07:29:06.000Z,95
2022-11-12T07:30:22.000Z,95
2022-11-12T07:31:38.000Z,95
2022-11-12T07:32:54.000Z,95
2022-11-12T07:34:10.000Z,101
2022-11-12T07:35:27.000Z,101
2022-11-12T07:37:59.000Z,106
2022-11-12T07:39:14.000Z,112
2022-11-12T07:40:30.000Z,118
2022-11-12T07:41:47.000Z,129
2022-11-12T07:43:03.000Z,140
2022-11-12T07:44:19.000Z,146
2022-11-12T07:45:35.000Z,146
2022-11-12T07:46:51.000Z,146
2022-11-12T07:48:07.000Z,163
2022-11-12T07:49:23.000Z,180
2022-11-12T07:50:38.000Z,247
2022-11-12T07:51:53.000Z,1012
2022-11-12T07:53:08.000Z,1968
2022-11-12T07:54:25.000Z,2700
2022-11-12T07:55:41.000Z,2806
2022-11-12T07:56:57.000Z,2812
2022-11-12T07:58:13.000Z,2874
2022-11-12T07:59:29.000Z,2761
2022-11-12T08:00:46.000Z,2565
2022-11-12T08:03:18.000Z,2975
2022-11-12T08:04:34.000Z,3043
2022-11-12T08:05:50.000Z,3015
2022-11-12T08:07:06.000Z,3127
2022-11-12T08:08:22.000Z,3026
2022-11-12T08:09:38.000Z,3116
2022-11-12T08:10:54.000Z,2880
2022-11-12T08:12:10.000Z,2857
2022-11-12T08:13:27.000Z,3026
2022-11-12T08:14:43.000Z,2896
2022-11-12T08:15:59.000Z,2835
2022-11-12T08:17:15.000Z,2874
2022-11-12T08:18:31.000Z,3251
2022-11-12T08:19:46.000Z,3076
2022-11-12T08:21:02.000Z,2362
2022-11-12T08:22:18.000Z,1653
2022-11-12T08:23:33.000Z,1445
2022-11-12T08:24:48.000Z,1445
2022-11-12T08:26:05.000Z,1456
2022-11-12T08:27:21.000Z,1473
2022-11-12T08:28:37.000Z,1501
2022-11-12T08:29:53.000Z,1535
2022-11-12T08:31:09.000Z,1552
2022-11-12T08:32:26.000Z,1580
2022-11-12T08:33:42.000Z,1608
2022-11-12T08:34:58.000Z,1642
2022-11-12T08:36:14.000Z,1676
2022-11-12T08:37:30.000Z,1721
2022-11-12T08:38:47.000Z,1755
2022-11-12T08:41:19.000Z,1839
2022-11-12T08:42:34.000Z,1878
2022-11-12T08:43:50.000Z,1906
2022-11-12T08:45:07.000Z,1935
2022-11-12T08:46:23.000Z,1951
2022-11-12T08:47:39.000Z,1968
2022-11-12T08:48:55.000Z,1991
2022-11-12T08:50:11.000Z,2013
2022-11-12T08:51:27.000Z,2025
2022-11-12T08:52:42.000Z,2036
2022-11-12T08:53:58.000Z,2036
2022-11-12T08:55:14.000Z,2041
2022-11-12T08:56:30.000Z,2036
2022-11-12T08:57:47.000Z,2041
2022-11-12T08:59:03.000Z,2036
2022-11-12T09:00:19.000Z,2025
2022-11-12T09:01:35.000Z,2019
2022-11-12T09:02:51.000Z,2013
2022-11-12T09:04:08.000Z,2002
2022-11-12T09:05:24.000Z,2002
2022-11-12T09:06:40.000Z,1985
2022-11-12T09:07:56.000Z,1968
2022-11-12T09:09:11.000Z,1935
2022-11-12T09:10:27.000Z,1901
2022-11-12T09:11:44.000Z,1901
2022-11-12T09:13:00.000Z,1901
2022-11-12T09:14:16.000Z,1923
2022-11-12T09:15:32.000Z,1940
2022-11-12T09:16:48.000Z,1951
2022-11-12T09:18:04.000Z,2002
2022-11-12T09:19:19.000Z,2126
2022-11-12T09:20:34.000Z,2345
2022-11-12T09:21:50.000Z,2677
2022-11-12T09:23:06.000Z,3943
2022-11-12T09:24:22.000Z,3521
2022-11-12T09:25:38.000Z,3088
2022-11-12T09:26:54.000Z,2958
2022-11-12T09:28:10.000Z,2874
2022-11-12T09:29:27.000Z,2593
2022-11-12T09:30:43.000Z,2531
2022-11-12T09:31:59.000Z,2610
2022-11-12T09:33:15.000Z,2716
2022-11-12T09:34:31.000Z,2306
2022-11-12T09:35:48.000Z,2053
2022-11-12T09:37:04.000Z,2193
2022-11-12T09:38:20.000Z,2306
2022-11-12T09:39:35.000Z,2255
2022-11-12T09:40:51.000Z,2165
2022-11-12T09:42:08.000Z,2278
2022-11-12T09:44:40.000Z,2266
2022-11-12T09:45:56.000Z,2311
2022-11-12T09:47:12.000Z,2109
2022-11-12T09:48:28.000Z,2120
2022-11-12T09:49:43.000Z,2171
2022-11-12T09:50:59.000Z,2306
2022-11-12T09:52:14.000Z,2311
2022-11-12T09:53:29.000Z,2435
2022-11-12T09:54:46.000Z,2250
2022-11-12T09:57:18.000Z,1985
2022-11-12T09:58:34.000Z,2086
2022-11-12T09:59:50.000Z,2210
2022-11-12T10:01:07.000Z,2086
2022-11-12T10:02:23.000Z,1845
2022-11-12T10:03:39.000Z,2255
2022-11-12T10:04:55.000Z,2424
2022-11-12T10:06:11.000Z,2126
2022-11-12T10:07:28.000Z,1850
2022-11-12T10:08:44.000Z,2171
2022-11-12T10:09:59.000Z,2131
2022-11-12T10:11:15.000Z,2036
2022-11-12T10:12:31.000Z,2075
2022-11-12T10:13:48.000Z,2064
2022-11-12T10:15:04.000Z,1355
2022-11-12T10:16:20.000Z,1333
2022-11-12T10:17:36.000Z,1248
2022-11-12T10:18:52.000Z,1006
2022-11-12T10:20:08.000Z,1175
2022-11-12T10:22:40.000Z,1608
2022-11-12T10:23:55.000Z,1546
2022-11-12T10:25:11.000Z,1338
2022-11-12T10:26:27.000Z,1665
2022-11-12T10:27:43.000Z,1726
2022-11-12T10:28:59.000Z,1130
2022-11-12T10:30:15.000Z,1490
2022-11-12T10:31:31.000Z,1260
2022-11-12T10:34:04.000Z,697
2022-11-12T10:35:20.000Z,630
2022-11-12T10:36:36.000Z,528
2022-11-12T10:37:52.000Z,511
2022-11-12T10:39:09.000Z,528
2022-11-12T10:40:25.000Z,585
2022-11-12T10:41:41.000Z,523
2022-11-12T10:42:56.000Z,466
2022-11-12T10:44:12.000Z,410
2022-11-12T10:45:29.000Z,399
2022-11-12T10:48:01.000Z,382
2022-11-12T10:49:16.000Z,410
2022-11-12T10:50:31.000Z,444
2022-11-12T10:51:48.000Z,405
2022-11-12T10:53:04.000Z,354
2022-11-12T10:54:20.000Z,354
2022-11-12T10:55:36.000Z,360
2022-11-12T10:56:52.000Z,326
2022-11-12T10:58:08.000Z,393
2022-11-12T10:59:25.000Z,405
2022-11-12T11:00:41.000Z,393
2022-11-12T11:01:57.000Z,371
2022-11-12T11:03:12.000Z,348
2022-11-12T11:04:28.000Z,337
2022-11-12T11:05:44.000Z,343
2022-11-12T11:07:00.000Z,320
2022-11-12T11:08:16.000Z,315
2022-11-12T11:09:32.000Z,309
2022-11-12T11:10:48.000Z,303
2022-11-12T11:12:05.000Z,298
2022-11-12T11:13:21.000Z,298
2022-11-12T11:14:37.000Z,298
2022-11-12T11:15:53.000Z,292
2022-11-12T11:17:09.000Z,286
2022-11-12T11:18:26.000Z,281
2022-11-12T11:19:42.000Z,275
2022-11-12T11:20:58.000Z,270
2022-11-12T11:22:13.000Z,264
2022-11-12T11:23:29.000Z,258
2022-11-12T11:26:02.000Z,258
2022-11-12T11:27:18.000Z,253
2022-11-12T11:28:34.000Z,253
2022-11-12T11:29:50.000Z,247
2022-11-12T11:31:06.000Z,236
2022-11-12T11:32:21.000Z,241
2022-11-12T11:33:36.000Z,253
2022-11-12T11:34:51.000Z,253
2022-11-12T11:36:07.000Z,253
2022-11-12T11:37:24.000Z,253
2022-11-12T11:38:40.000Z,253
2022-11-12T11:39:56.000Z,241
2022-11-12T11:41:12.000Z,247
2022-11-12T11:42:28.000Z,253
2022-11-12T11:43:45.000Z,247
2022-11-12T11:45:01.000Z,253
2022-11-12T11:46:17.000Z,247
2022-11-12T11:47:33.000Z,253
2022-11-12T11:48:49.000Z,258
2022-11-12T11:50:06.000Z,258
2022-11-12T11:51:21.000Z,258
2022-11-12T11:52:37.000Z,258
2022-11-12T11:53:53.000Z,258
2022-11-12T11:55:09.000Z,264
2022-11-12T11:56:26.000Z,258
2022-11-12T11:57:42.000Z,247
2022-11-12T11:58:58.000Z,230
2022-11-12T12:00:13.000Z,230
2022-11-12T12:01:28.000Z,225
2022-11-12T12:02:44.000Z,213
2022-11-12T12:03:59.000Z,213
2022-11-12T12:05:15.000Z,213
2022-11-12T12:06:31.000Z,208
2022-11-12T12:07:47.000Z,208
2022-11-12T12:09:04.000Z,202
2022-11-12T12:10:20.000Z,202
2022-11-12T12:11:36.000Z,196
2022-11-12T12:12:52.000Z,191
2022-11-12T12:14:08.000Z,191
2022-11-12T12:15:25.000Z,191
2022-11-12T12:16:41.000Z,180
2022-11-12T12:17:57.000Z,180
2022-11-12T12:19:13.000Z,174
2022-11-12T12:20:28.000Z,174
2022-11-12T12:21:44.000Z,168
2022-11-12T12:23:00.000Z,168
2022-11-12T12:24:16.000Z,163
2022-11-12T12:25:32.000Z,163
2022-11-12T12:26:48.000Z,163
2022-11-12T12:29:21.000Z,157
2022-11-12T12:30:36.000Z,157
2022-11-12T12:31:51.000Z,157
2022-11-12T12:33:06.000Z,157
2022-11-12T12:34:22.000Z,151
2022-11-12T12:35:38.000Z,151
2022-11-12T12:36:54.000Z,151
2022-11-12T12:38:10.000Z,151
2022-11-12T12:39:26.000Z,151
2022-11-12T12:40:43.000Z,151
2022-11-12T12:41:59.000Z,151
2022-11-12T12:43:15.000Z,151
2022-11-12T12:44:31.000Z,151
2022-11-12T12:45:47.000Z,151
2022-11-12T12:47:04.000Z,146
2022-11-12T12:48:20.000Z,146
2022-11-12T12:49:36.000Z,146
2022-11-12T12:50:51.000Z,146
2022-11-12T12:52:07.000Z,146
2022-11-12T12:53:23.000Z,146
2022-11-12T12:54:40.000Z,151
2022-11-12T12:55:56.000Z,151
2022-11-12T12:57:12.000Z,151
2022-11-12T12:58:28.000Z,151
2022-11-12T12:59:43.000Z,151
2022-11-12T13:00:59.000Z,151
2022-11-12T13:02:14.000Z,151
2022-11-12T13:03:29.000Z,151
2022-11-12T13:04:45.000Z,146
2022-11-12T13:06:02.000Z,146
2022-11-12T13:07:18.000Z,146
2022-11-12T13:08:34.000Z,146
2022-11-12T13:09:50.000Z,146
2022-11-12T13:11:06.000Z,146
2022-11-12T13:12:22.000Z,146
2022-11-12T13:13:39.000Z,146
2022-11-12T13:14:55.000Z,146
2022-11-12T13:16:11.000Z,146
2022-11-12T13:17:27.000Z,140
2022-11-12T13:18:43.000Z,140
2022-11-12T13:19:59.000Z,140
2022-11-12T13:21:15.000Z,140
2022-11-12T13:22:31.000Z,135
2022-11-12T13:23:47.000Z,135
2022-11-12T13:25:03.000Z,135
2022-11-12T13:26:20.000Z,135
2022-11-12T13:27:36.000Z,135
2022-11-12T13:28:51.000Z,129
2022-11-12T13:30:07.000Z,129
2022-11-12T13:32:39.000Z,123
2022-11-12T13:33:54.000Z,123
2022-11-12T13:35:09.000Z,118
2022-11-12T13:36:25.000Z,118
2022-11-12T13:37:41.000Z,112
2022-11-12T13:38:58.000Z,112
2022-11-12T13:40:14.000Z,112
2022-11-12T13:41:30.000Z,106
2022-11-12T13:42:46.000Z,106
2022-11-12T13:44:02.000Z,106
2022-11-12T13:45:19.000Z,106
2022-11-12T13:46:35.000Z,101
2022-11-12T13:47:51.000Z,101
2022-11-12T13:49:07.000Z,106
2022-11-12T13:50:23.000Z,101
2022-11-12T13:51:39.000Z,101
2022-11-12T13:52:55.000Z,101
2022-11-12T13:54:11.000Z,101
2022-11-12T13:55:27.000Z,95
2022-11-12T13:56:43.000Z,95
2022-11-12T13:58:00.000Z,95
2022-11-12T13:59:16.000Z,90
2022-11-12T14:00:31.000Z,90
2022-11-12T14:01:46.000Z,90
2022-11-12T14:03:02.000Z,90
2022-11-12T14:04:19.000Z,90
2022-11-12T14:05:34.000Z,90
2022-11-12T14:06:49.000Z,90
2022-11-12T14:08:05.000Z,90
2022-11-12T14:09:21.000Z,90
2022-11-12T14:10:38.000Z,95
2022-11-12T14:11:54.000Z,90
2022-11-12T14:13:10.000Z,90
2022-11-12T14:14:26.000Z,90
2022-11-12T14:15:42.000Z,90
2022-11-12T14:16:59.000Z,90
2022-11-12T14:18:15.000Z,90
2022-11-12T14:19:31.000Z,90
2022-11-12T14:20:47.000Z,90
2022-11-12T14:22:03.000Z,90
2022-11-12T14:23:19.000Z,90
2022-11-12T14:24:35.000Z,84
2022-11-12T14:25:51.000Z,84
2022-11-12T14:27:07.000Z,84
2022-11-12T14:28:23.000Z,90
2022-11-12T14:29:39.000Z,84
2022-11-12T14:30:56.000Z,84
2022-11-12T14:32:11.000Z,84
2022-11-12T14:33:26.000Z,84
2022-11-12T14:35:58.000Z,78
2022-11-12T14:37:14.000Z,78
2022-11-12T14:38:29.000Z,78
2022-11-12T14:39:44.000Z,78
2022-11-12T14:41:00.000Z,78
2022-11-12T14:42:17.000Z,73
2022-11-12T14:43:33.000Z,73
2022-11-12T14:44:49.000Z,73
2022-11-12T14:46:05.000Z,73
2022-11-12T14:47:21.000Z,67
2022-11-12T14:48:38.000Z,67
2022-11-12T14:49:54.000Z,67
2022-11-12T14:51:10.000Z,67
2022-11-12T14:52:26.000Z,61
2022-11-12T14:53:42.000Z,61
2022-11-12T14:54:58.000Z,61
2022-11-12T14:56:14.000Z,56
2022-11-12T14:57:30.000Z,56
2022-11-12T14:58:46.000Z,56
2022-11-12T15:00:02.000Z,50
2022-11-12T15:01:18.000Z,50
2022-11-12T15:02:35.000Z,50
2022-11-12T15:03:51.000Z,45
2022-11-12T15:05:06.000Z,45
2022-11-12T15:06:21.000Z,45
2022-11-12T15:07:37.000Z,39
2022-11-12T15:08:54.000Z,39
2022-11-12T15:10:10.000Z,39
2022-11-12T15:11:26.000Z,33
2022-11-12T15:13:58.000Z,33
2022-11-12T15:15:15.000Z,33
2022-11-12T15:16:31.000Z,28
2022-11-12T15:17:47.000Z,28
2022-11-12T15:19:03.000Z,28
2022-11-12T15:20:19.000Z,22
2022-11-12T15:21:36.000Z,22
2022-11-12T15:22:51.000Z,22
2022-11-12T15:24:07.000Z,22
2022-11-12T15:25:23.000Z,16
2022-11-12T15:26:39.000Z,16
2022-11-12T15:27:56.000Z,16
2022-11-12T15:29:12.000Z,16
2022-11-12T15:30:28.000Z,11
2022-11-12T15:31:44.000Z,11
2022-11-12T15:34:16.000Z,11
2022-11-12T15:35:31.000Z,11
2022-11-12T15:36:46.000Z,5
2022-11-12T15:39:17.000Z,5
2022-11-12T15:40:33.000Z,5
2022-11-12T15:41:49.000Z,5
2022-11-12T15:43:04.000Z,5
2022-11-12T15:44:19.000Z,5
2022-11-12T15:45:35.000Z,5
2022-11-12T15:46:52.000Z,0
2022-11-12T15:48:08.000Z,0
2022-11-12T15:49:24.000Z,0
2022-11-12T15:50:40.000Z,0
2022-11-12T15:51:56.000Z,0
2022-11-12T15:53:13.000Z,0
2022-11-12T15:54:29.000Z,0
2022-11-12T15:55:45.000Z,0
2022-11-12T15:57:01.000Z,0
2022-11-12T15:58:17.000Z,0
2022-11-12T15:59:34.000Z,0
2022-11-12T16:00:49.000Z,0
2022-11-12T16:02:05.000Z,0
2022-11-12T16:03:21.000Z,0
2022-11-12T16:04:37.000Z,0
2022-11-12T16:05:54.000Z,0
2022-11-12T16:07:10.000Z,0
2022-11-12T16:08:26.000Z,0
2022-11-12T16:09:41.000Z,0
2022-11-12T16:10:56.000Z,0
2022-11-12T16:12:12.000Z,0
2022-11-12T16:13:27.000Z,0
2022-11-12T16:14:43.000Z,0
2022-11-12T16:15:59.000Z,0
2022-11-12T16:17:15.000Z,0
2022-11-12T16:18:32.000Z,0
2022-11-12T16:19:48.000Z,0
2022-11-12T16:21:04.000Z,0
2022-11-12T16:22:20.000Z,0
2022-11-12T16:23:36.000Z,0
2022-11-12T16:24:53.000Z,0
2022-11-12T16:26:09.000Z,0
2022-11-12T16:27:25.000Z,0
2022-11-12T16:28:41.000Z,0
2022-11-12T16:29:56.000Z,0
2022-11-12T16:31:13.000Z,0
2022-11-12T16:32:29.000Z,0
2022-11-12T16:33:45.000Z,0
2022-11-12T16:35:01.000Z,0
2022-11-12T16:36:16.000Z,0
2022-11-12T16:37:33.000Z,0
2022-11-12T16:38:48.000Z,0
2022-11-12T16:40:03.000Z,0
2022-11-12T16:42:34.000Z,0
2022-11-12T16:43:50.000Z,0
2022-11-12T16:45:05.000Z,0
2022-11-12T16:46:21.000Z,0
2022-11-12T16:47:37.000Z,0
2022-11-12T16:48:53.000Z,0
2022-11-12T16:50:10.000Z,0
2022-11-12T16:51:26.000Z,0
2022-11-12T16:52:42.000Z,0
2022-11-12T16:53:58.000Z,0
2022-11-12T16:55:14.000Z,0
2022-11-12T16:56:31.000Z,0
2022-11-12T16:57:47.000Z,0
2022-11-12T16:59:03.000Z,0
2022-11-12T17:00:19.000Z,0
2022-11-12T17:01:34.000Z,0
2022-11-12T17:02:51.000Z,0
2022-11-12T17:04:07.000Z,0
2022-11-12T17:05:23.000Z,0
2022-11-12T17:06:39.000Z,0
2022-11-12T17:07:55.000Z,0
2022-11-12T17:09:11.000Z,0
2022-11-12T17:10:27.000Z,0
2022-11-12T17:11:42.000Z,0
2022-11-12T17:12:57.000Z,0
2022-11-12T17:14:12.000Z,0
2022-11-12T17:15:29.000Z,0
2022-11-12T17:16:45.000Z,0
2022-11-12T17:18:01.000Z,0
2022-11-12T17:19:17.000Z,0
2022-11-12T17:20:33.000Z,0
2022-11-12T17:21:50.000Z,0
2022-11-12T17:23:06.000Z,0
2022-11-12T17:24:22.000Z,0
2022-11-12T17:25:38.000Z,0
2022-11-12T17:26:54.000Z,0
2022-11-12T17:28:10.000Z,0
2022-11-12T17:29:27.000Z,0
2022-11-12T17:30:42.000Z,0
2022-11-12T17:31:58.000Z,0
2022-11-12T17:33:14.000Z,0
2022-11-12T17:34:30.000Z,0
2022-11-12T17:35:47.000Z,0
2022-11-12T17:37:03.000Z,0
2022-11-12T17:38:19.000Z,0
2022-11-12T17:39:34.000Z,0
2022-11-12T17:40:49.000Z,0
2022-11-12T17:42:05.000Z,0
2022-11-12T17:43:20.000Z,0
2022-11-12T17:44:36.000Z,0
2022-11-12T17:45:52.000Z,0
2022-11-12T17:47:08.000Z,0
2022-11-12T17:48:25.000Z,0
2022-11-12T17:49:41.000Z,0
2022-11-12T17:50:57.000Z,0
2022-11-12T17:52:13.000Z,0
2022-11-12T17:53:29.000Z,0
2022-11-12T17:54:46.000Z,0
2022-11-12T17:56:02.000Z,0
2022-11-12T17:57:18.000Z,0
2022-11-12T17:58:34.000Z,0
2022-11-12T17:59:49.000Z,0
2022-11-12T18:01:06.000Z,0
2022-11-12T18:02:22.000Z,0
2022-11-12T18:03:38.000Z,0
2022-11-12T18:04:54.000Z,0
2022-11-12T18:06:10.000Z,0
2022-11-12T18:07:27.000Z,0
2022-11-12T18:08:42.000Z,0
2022-11-12T18:09:57.000Z,0
2022-11-12T18:11:13.000Z,0
2022-11-12T18:12:30.000Z,0
2022-11-12T18:13:45.000Z,0
2022-11-12T18:15:01.000Z,0
2022-11-12T18:16:17.000Z,0
2022-11-12T18:17:33.000Z,0
2022-11-12T18:18:50.000Z,0
2022-11-12T18:20:06.000Z,0
2022-11-12T18:21:22.000Z,0
2022-11-12T18:22:38.000Z,0
2022-11-12T18:23:54.000Z,0
2022-11-12T18:25:10.000Z,0
2022-11-12T18:26:27.000Z,0
2022-11-12T18:27:43.000Z,0
2022-11-12T18:28:59.000Z,0
2022-11-12T18:30:14.000Z,0
2022-11-12T18:31:30.000Z,0
2022-11-12T18:32:47.000Z,0
2022-11-12T18:34:03.000Z,0
2022-11-12T18:35:19.000Z,0
2022-11-12T18:36:35.000Z,0
2022-11-12T18:37:51.000Z,0
2022-11-12T18:39:07.000Z,0
2022-11-12T18:40:22.000Z,0
2022-11-12T18:41:37.000Z,0